Time;durP1;ratioP1;P1;durP2;ratioP2;P2;SDS_P1;SDS_P2;PMS_P1;PMS_P2;Temp;Humidity;BMP_temperature;BMP_pressure;BME280_temperature;BME280_humidity;BME280_pressure;Samples;Min_cycle;Max_cycle;Signal;HPM_P1;HPM_P2
2023/08/14 00:00:42;;;;;;;25.00;8.70;;;;;;;29.07;48.67;99155.47;135301;1280;22743;-66
2023/08/14 00:04:04;;;;;;;;;;;;;;;28.97;48.82;99159.86;135323;1280;22504;-66
2023/08/14 00:07:07;;;;;;;20.50;8.50;;;;;;;28.73;49.24;99160.02;135259;1280;22554;-63
2023/08/14 00:10:09;;;;;;;20.10;7.70;;;;;;;28.68;49.24;99157.59;135172;1280;23809;-64
2023/08/14 00:13:11;;;;;;;17.40;6.50;;;;;;;28.60;49.43;99157.48;135370;1280;24239;-64
2023/08/14 00:16:14;;;;;;;17.70;6.80;;;;;;;28.58;49.71;99156.84;135346;1280;22531;-62
2023/08/14 00:19:16;;;;;;;19.20;7.30;;;;;;;28.48;49.69;99159.29;135337;1281;22539;-60
2023/08/14 00:22:19;;;;;;;22.70;8.40;;;;;;;28.60;49.22;99163.98;135352;1280;24242;-60
2023/08/14 00:25:21;;;;;;;22.50;8.80;;;;;;;28.05;50.33;99162.79;135076;1264;22712;-62
2023/08/14 00:28:24;;;;;;;20.30;7.00;;;;;;;27.97;50.58;99162.02;135174;1281;22549;-63
2023/08/14 00:31:26;;;;;;;22.80;7.40;;;;;;;27.90;50.72;99163.88;135377;1281;22657;-64
2023/08/14 00:34:28;;;;;;;20.80;7.30;;;;;;;28.09;50.43;99161.30;135347;1281;22545;-63
2023/08/14 00:37:31;;;;;;;19.90;7.20;;;;;;;28.27;50.10;99167.54;135342;1281;22530;-64
2023/08/14 00:40:33;;;;;;;16.80;5.50;;;;;;;28.36;49.63;99169.56;135340;1281;22527;-66
2023/08/14 00:43:35;;;;;;;20.70;7.40;;;;;;;28.42;49.86;99171.71;135327;1281;22544;-60
2023/08/14 00:46:38;;;;;;;17.80;6.60;;;;;;;28.30;50.40;99174.05;135318;1281;22584;-60
2023/08/14 00:49:40;;;;;;;22.40;7.70;;;;;;;28.26;50.53;99174.39;135210;1281;22701;-63
2023/08/14 00:52:43;;;;;;;23.50;7.90;;;;;;;28.29;50.34;99177.92;135256;1272;22723;-63
2023/08/14 00:55:45;;;;;;;22.50;7.80;;;;;;;28.20;50.14;99181.23;135175;1262;24216;-64
2023/08/14 00:58:47;;;;;;;20.70;8.20;;;;;;;28.11;50.78;99187.08;135366;1281;22525;-61
2023/08/14 01:01:50;;;;;;;18.60;7.30;;;;;;;28.27;50.29;99192.27;135377;1281;22527;-61
2023/08/14 01:04:52;;;;;;;19.40;5.90;;;;;;;28.07;49.97;99194.02;135327;1281;22635;-66
2023/08/14 01:07:56;;;;;;;16.30;5.80;;;;;;;28.00;49.90;99196.79;135295;1280;25329;-64
2023/08/14 01:10:59;;;;;;;16.80;5.50;;;;;;;28.03;49.57;99199.77;135361;1281;22525;-63
2023/08/14 01:14:01;;;;;;;18.80;6.40;;;;;;;27.98;49.79;99201.27;135318;1281;22536;-64
2023/08/14 01:17:04;;;;;;;20.50;6.00;;;;;;;27.98;50.08;99200.75;135307;1263;22799;-60
2023/08/14 01:20:08;;;;;;;19.90;5.70;;;;;;;27.97;50.40;99212.80;135316;1273;22526;-65
2023/08/14 01:23:10;;;;;;;33.40;5.00;;;;;;;27.74;51.06;99215.66;135338;1281;24196;-63
2023/08/14 01:26:13;;;;;;;12.00;4.80;;;;;;;27.67;50.97;99214.44;135326;1281;22513;-67
2023/08/14 01:29:15;;;;;;;16.50;6.00;;;;;;;27.47;51.52;99212.21;135352;1281;22527;-62
2023/08/14 01:32:17;;;;;;;14.90;5.60;;;;;;;27.49;51.57;99206.93;135318;1281;22528;-62
2023/08/14 01:35:20;;;;;;;17.80;6.10;;;;;;;27.49;51.54;99206.34;135278;1281;22480;-60
2023/08/14 01:38:22;;;;;;;19.30;7.10;;;;;;;27.51;51.65;99208.02;135285;1281;22556;-62
2023/08/14 01:41:25;;;;;;;21.00;8.50;;;;;;;27.41;52.15;99208.88;135263;1281;22523;-62
2023/08/14 01:44:27;;;;;;;21.30;7.90;;;;;;;27.32;52.55;99204.94;135332;1268;22577;-63
2023/08/14 01:47:29;;;;;;;20.50;8.00;;;;;;;27.19;52.90;99202.73;135311;1281;22565;-63
2023/08/14 01:50:32;;;;;;;20.00;7.50;;;;;;;27.38;52.36;99197.63;135360;1281;22539;-64
2023/08/14 01:53:35;;;;;;;21.00;7.90;;;;;;;27.25;52.74;99200.60;135357;1281;22629;-65
2023/08/14 01:56:37;;;;;;;20.50;7.30;;;;;;;27.36;52.60;99197.27;135337;1281;22533;-62
2023/08/14 01:59:39;;;;;;;18.10;6.90;;;;;;;27.41;52.51;99197.56;135343;1281;22639;-63
2023/08/14 02:02:42;;;;;;;19.00;6.70;;;;;;;27.34;52.55;99195.77;135357;1281;22545;-65
2023/08/14 02:05:44;;;;;;;18.00;6.80;;;;;;;27.31;52.50;99196.98;135347;1281;22557;-64
2023/08/14 02:08:47;;;;;;;18.70;7.60;;;;;;;27.32;52.40;99198.14;135349;1280;24154;-63
2023/08/14 02:11:49;;;;;;;23.70;7.40;;;;;;;27.34;52.18;99196.30;135152;1281;25262;-62
2023/08/14 02:14:52;;;;;;;22.20;8.60;;;;;;;27.06;52.91;99197.41;135217;1281;22537;-60
2023/08/14 02:17:54;;;;;;;20.40;7.80;;;;;;;26.96;53.31;99198.10;135342;1281;22530;-62
2023/08/14 02:20:56;;;;;;;21.40;8.20;;;;;;;26.92;53.35;99197.36;135313;1275;22536;-60
2023/08/14 02:23:59;;;;;;;20.10;7.50;;;;;;;26.98;53.44;99200.70;135387;1281;22533;-60
2023/08/14 02:27:01;;;;;;;20.30;7.80;;;;;;;27.01;53.48;99202.05;135354;1281;22537;-61
2023/08/14 02:30:04;;;;;;;20.00;7.40;;;;;;;27.10;53.35;99198.20;135385;1281;22529;-61
2023/08/14 02:33:06;;;;;;;20.30;8.50;;;;;;;27.21;53.36;99195.20;135373;1281;22532;-61
2023/08/14 02:36:09;;;;;;;19.50;8.10;;;;;;;27.24;53.44;99189.60;135334;1281;22686;-60
2023/08/14 02:39:11;;;;;;;23.90;9.40;;;;;;;27.30;53.68;99189.05;135331;1281;22533;-62
2023/08/14 02:42:13;;;;;;;20.90;8.60;;;;;;;27.43;53.27;99197.46;135284;1281;22527;-64
2023/08/14 02:45:16;;;;;;;19.60;8.60;;;;;;;27.34;53.64;99204.88;135348;1281;25339;-62
2023/08/14 02:48:18;;;;;;;19.60;8.30;;;;;;;27.21;53.96;99197.49;135348;1281;22527;-61
2023/08/14 02:51:21;;;;;;;18.60;7.30;;;;;;;27.34;53.52;99197.70;135375;1281;22606;-67
2023/08/14 02:54:23;;;;;;;20.00;8.40;;;;;;;27.37;53.28;99199.47;135320;1281;23920;-63
2023/08/14 02:57:26;;;;;;;23.60;8.90;;;;;;;27.21;53.81;99196.91;135341;1272;24208;-60
2023/08/14 03:00:28;;;;;;;20.90;8.90;;;;;;;27.28;53.78;99197.89;135200;1281;25495;-60
2023/08/14 03:03:30;;;;;;;21.40;8.50;;;;;;;27.33;53.76;99201.05;135339;1273;22551;-62
2023/08/14 03:06:33;;;;;;;19.90;7.70;;;;;;;27.57;53.13;99204.73;135303;1263;22535;-62
2023/08/14 03:09:35;;;;;;;21.60;8.50;;;;;;;27.62;53.17;99205.62;135239;1281;22692;-62
2023/08/14 03:12:38;;;;;;;19.70;7.70;;;;;;;27.62;53.34;99201.93;135346;1281;22537;-64
2023/08/14 03:15:41;;;;;;;20.20;9.00;;;;;;;27.75;52.97;99201.52;135375;1281;22527;-67
2023/08/14 03:18:43;;;;;;;23.20;9.80;;;;;;;27.87;53.08;99206.64;135359;1281;22568;-67
2023/08/14 03:21:45;;;;;;;22.60;9.40;;;;;;;27.94;52.82;99213.83;135376;1281;22532;-64
2023/08/14 03:24:48;;;;;;;24.70;9.10;;;;;;;27.74;53.29;99215.71;135356;1281;25370;-61
2023/08/14 03:27:50;;;;;;;21.60;9.30;;;;;;;27.68;52.78;99214.20;135366;1281;22541;-67
2023/08/14 03:30:53;;;;;;;22.00;10.50;;;;;;;27.61;52.96;99207.73;135369;1281;22523;-66
2023/08/14 03:33:55;;;;;;;27.90;12.10;;;;;;;27.62;53.02;99204.58;135376;1280;22537;-67
2023/08/14 03:36:58;;;;;;;25.00;11.80;;;;;;;27.52;53.34;99206.03;135399;1281;22573;-64
2023/08/14 03:40:00;;;;;;;24.60;11.10;;;;;;;27.61;53.12;99212.28;135379;1281;22575;-65
2023/08/14 03:43:03;;;;;;;22.50;10.40;;;;;;;27.58;53.39;99217.15;135336;1281;22626;-63
2023/08/14 03:46:05;;;;;;;26.10;11.50;;;;;;;27.46;53.58;99213.58;135362;1281;22542;-67
2023/08/14 03:49:08;;;;;;;22.10;9.90;;;;;;;27.37;54.16;99214.52;135404;1280;22546;-65
2023/08/14 03:52:10;;;;;;;28.30;10.90;;;;;;;27.57;54.14;99215.31;135388;1281;22605;-64
2023/08/14 03:55:12;;;;;;;22.10;10.10;;;;;;;27.72;54.13;99219.16;135246;1263;22557;-63
2023/08/14 03:58:15;;;;;;;24.90;10.90;;;;;;;27.93;53.63;99222.94;135230;1281;22552;-60
2023/08/14 04:01:17;;;;;;;22.40;10.00;;;;;;;28.00;53.62;99222.13;135317;1281;22538;-61
2023/08/14 04:04:20;;;;;;;25.00;10.40;;;;;;;27.89;53.83;99218.63;135365;1281;22653;-60
2023/08/14 04:07:22;;;;;;;24.30;11.30;;;;;;;28.01;53.57;99218.77;135109;1280;22544;-61
2023/08/14 04:10:25;;;;;;;24.20;11.00;;;;;;;28.00;54.00;99220.14;135260;1281;22544;-62
2023/08/14 04:13:28;;;;;;;24.50;10.40;;;;;;;28.13;54.01;99223.98;135352;1280;22538;-63
2023/08/14 04:16:43;;;;;;;23.20;10.70;;;;;;;28.21;53.89;99227.80;135364;1281;22532;-60
2023/08/14 04:19:46;;;;;;;24.30;10.30;;;;;;;28.30;54.06;99227.63;135395;1280;22541;-61
2023/08/14 04:22:48;;;;;;;23.80;9.90;;;;;;;28.44;53.99;99229.23;135369;1280;24527;-62
2023/08/14 04:25:50;;;;;;;23.80;10.50;;;;;;;28.69;53.67;99230.02;135220;1281;25443;-59
2023/08/14 04:28:53;;;;;;;21.60;11.00;;;;;;;28.98;53.37;99226.90;135312;1280;22578;-62
2023/08/14 04:31:55;;;;;;;23.90;10.90;;;;;;;29.04;53.41;99230.23;135275;1281;24076;-64
2023/08/14 04:34:57;;;;;;;22.40;10.40;;;;;;;29.29;52.76;99236.66;135344;1281;22553;-61
2023/08/14 04:38:00;;;;;;;23.80;10.40;;;;;;;29.47;52.48;99235.28;135365;1280;22564;-68
2023/08/14 04:41:02;;;;;;;23.40;9.30;;;;;;;29.85;51.91;99238.34;135374;1280;22640;-64
2023/08/14 04:44:05;;;;;;;23.00;9.60;;;;;;;30.00;51.47;99244.04;135385;1280;22573;-65
2023/08/14 04:47:07;;;;;;;23.70;10.30;;;;;;;30.13;51.72;99251.28;135351;1281;22552;-64
2023/08/14 04:50:09;;;;;;;23.20;10.00;;;;;;;30.40;50.98;99254.94;135355;1280;22543;-62
2023/08/14 04:53:12;;;;;;;26.00;10.60;;;;;;;30.33;51.25;99252.20;135394;1281;24534;-61
2023/08/14 04:56:14;;;;;;;21.50;10.20;;;;;;;30.28;51.86;99254.72;135381;1280;22548;-65
2023/08/14 04:59:17;;;;;;;23.40;10.20;;;;;;;30.38;51.75;99253.70;135403;1281;22529;-62
2023/08/14 05:02:19;;;;;;;24.00;10.40;;;;;;;30.51;51.78;99255.85;135356;1281;25406;-59
2023/08/14 05:05:21;;;;;;;20.80;9.80;;;;;;;30.56;51.67;99254.95;135363;1281;22567;-63
2023/08/14 05:08:24;;;;;;;22.30;9.70;;;;;;;30.64;51.58;99256.55;135365;1280;22541;-64
2023/08/14 05:11:26;;;;;;;23.60;9.10;;;;;;;30.77;51.41;99255.61;135344;1281;22543;-64
2023/08/14 05:14:29;;;;;;;21.10;9.20;;;;;;;30.88;51.21;99251.09;135341;1281;22638;-61
2023/08/14 05:17:31;;;;;;;22.20;9.50;;;;;;;30.57;52.06;99248.21;135205;1281;22530;-62
2023/08/14 05:20:34;;;;;;;21.70;9.60;;;;;;;30.72;51.38;99249.02;135378;1281;22646;-63
2023/08/14 05:23:36;;;;;;;22.20;9.00;;;;;;;30.96;50.61;99251.63;135291;1281;22532;-62
2023/08/14 05:26:38;;;;;;;21.40;8.40;;;;;;;31.03;50.33;99250.48;135274;1264;24286;-61
2023/08/14 05:29:41;;;;;;;24.80;9.80;;;;;;;31.07;49.87;99251.58;135198;1280;25410;-62
2023/08/14 05:32:46;;;;;;;24.80;8.20;;;;;;;31.13;49.99;99251.55;135203;1281;22545;-61
2023/08/14 05:35:49;;;;;;;21.40;8.30;;;;;;;31.47;49.60;99256.09;135371;1281;22529;-63
2023/08/14 05:38:51;;;;;;;22.40;9.00;;;;;;;31.94;48.86;99258.31;135387;1281;22539;-62
2023/08/14 05:41:54;;;;;;;25.10;8.90;;;;;;;32.14;48.70;99258.21;135366;1281;22583;-65
2023/08/14 05:44:56;;;;;;;22.00;8.50;;;;;;;32.57;48.18;99263.06;135318;1281;24258;-63
2023/08/14 05:47:59;;;;;;;30.00;8.70;;;;;;;32.82;47.66;99264.48;135356;1281;22579;-64
2023/08/14 05:51:01;;;;;;;21.60;8.50;;;;;;;33.08;47.63;99259.36;135358;1281;22537;-63
2023/08/14 05:54:03;;;;;;;21.50;8.00;;;;;;;33.24;46.99;99267.41;135332;1281;23181;-60
2023/08/14 05:57:06;;;;;;;24.00;8.60;;;;;;;33.46;46.01;99267.61;135337;1281;22550;-67
2023/08/14 06:00:10;;;;;;;26.10;9.10;;;;;;;33.73;45.51;99269.54;135375;1281;22531;-66
2023/08/14 06:03:13;;;;;;;20.60;7.90;;;;;;;33.80;44.67;99265.63;135331;1281;22700;-63
2023/08/14 06:06:15;;;;;;;23.40;7.70;;;;;;;33.73;44.42;99263.42;135341;1281;22533;-63
2023/08/14 06:09:19;;;;;;;22.80;7.70;;;;;;;33.57;44.08;99270.70;135332;1281;23547;-62
2023/08/14 06:12:22;;;;;;;21.00;7.20;;;;;;;33.70;43.71;99266.23;135363;1281;22566;-62
2023/08/14 06:15:25;;;;;;;19.70;7.30;;;;;;;33.79;43.72;99266.95;135318;1281;25433;-63
2023/08/14 06:18:27;;;;;;;18.40;6.70;;;;;;;33.77;43.32;99267.69;135356;1281;22554;-65
2023/08/14 06:21:29;;;;;;;21.40;7.60;;;;;;;34.10;42.78;99271.77;135349;1281;22541;-60
2023/08/14 06:24:32;;;;;;;18.40;6.90;;;;;;;34.14;42.84;99271.11;135335;1280;22527;-61
2023/08/14 06:27:34;;;;;;;17.90;6.40;;;;;;;34.03;41.92;99268.13;135353;1281;22520;-63
2023/08/14 06:30:37;;;;;;;18.10;6.30;;;;;;;33.86;40.81;99274.73;135352;1281;22550;-60
2023/08/14 06:33:39;;;;;;;17.10;5.70;;;;;;;33.66;40.57;99270.70;135380;1281;22537;-59
2023/08/14 06:36:42;;;;;;;16.70;6.10;;;;;;;34.07;41.14;99274.47;135366;1281;25342;-61
2023/08/14 06:39:44;;;;;;;19.40;6.10;;;;;;;34.42;40.88;99271.99;135316;1281;22543;-62
2023/08/14 06:42:46;;;;;;;16.80;5.60;;;;;;;34.52;39.80;99274.14;135379;1264;22552;-60
2023/08/14 06:45:49;;;;;;;15.40;5.10;;;;;;;34.72;39.02;99277.38;135368;1281;25329;-60
2023/08/14 06:48:51;;;;;;;16.10;5.50;;;;;;;35.03;38.47;99280.68;135328;1280;22539;-64
2023/08/14 06:51:54;;;;;;;17.30;5.60;;;;;;;35.55;38.41;99284.31;135366;1280;22537;-63
2023/08/14 06:54:56;;;;;;;17.70;5.40;;;;;;;36.03;37.34;99281.20;135379;1280;22565;-65
2023/08/14 06:57:58;;;;;;;12.30;4.90;;;;;;;36.05;37.76;99279.04;135103;1280;22548;-60
2023/08/14 07:01:01;;;;;;;14.90;4.80;;;;;;;35.88;36.39;99278.64;135215;1280;22542;-58
2023/08/14 07:04:04;;;;;;;18.70;6.20;;;;;;;35.78;37.13;99280.72;135352;1280;22552;-61
2023/08/14 07:07:06;;;;;;;14.90;5.00;;;;;;;35.89;37.33;99282.23;135394;1280;24776;-64
2023/08/14 07:10:09;;;;;;;16.00;4.80;;;;;;;35.73;36.78;99281.91;135377;1280;22542;-63
2023/08/14 07:13:11;;;;;;;12.90;4.40;;;;;;;35.45;36.66;99285.63;135340;1280;22537;-62
2023/08/14 07:16:14;;;;;;;13.10;4.10;;;;;;;35.46;36.24;99286.55;135334;1280;22607;-61
2023/08/14 07:19:17;;;;;;;12.40;4.10;;;;;;;35.29;36.48;99288.11;135311;1280;24289;-62
2023/08/14 07:22:19;;;;;;;11.20;4.30;;;;;;;35.21;35.50;99290.40;135330;1280;22533;-59
2023/08/14 07:25:22;;;;;;;13.20;4.60;;;;;;;35.27;35.18;99289.27;135362;1281;22532;-62
2023/08/14 07:28:24;;;;;;;12.50;4.30;;;;;;;35.54;35.74;99297.54;135318;1259;22540;-64
2023/08/14 07:31:27;;;;;;;32.50;9.70;;;;;;;35.77;35.00;99299.08;135371;1281;22541;-63
2023/08/14 07:34:29;;;;;;;17.40;5.70;;;;;;;35.90;35.83;99302.54;135363;1280;22539;-62
2023/08/14 07:37:31;;;;;;;14.60;4.40;;;;;;;36.01;35.52;99304.73;135397;1280;22556;-62
2023/08/14 07:40:34;;;;;;;15.40;4.50;;;;;;;35.92;34.30;99303.77;135378;1281;22540;-63
2023/08/14 07:43:36;;;;;;;12.20;4.30;;;;;;;35.91;34.65;99306.27;135398;1271;22529;-64
2023/08/14 07:46:39;;;;;;;12.80;4.40;;;;;;;35.92;34.77;99305.91;135366;1263;23936;-63
2023/08/14 07:49:41;;;;;;;13.10;4.50;;;;;;;36.21;34.54;99305.52;135372;1281;22545;-63
2023/08/14 07:52:43;;;;;;;10.00;4.20;;;;;;;36.66;34.39;99305.29;135375;1281;22536;-63
2023/08/14 07:55:48;;;;;;;12.80;4.40;;;;;;;36.93;34.44;99310.17;135284;1280;22728;-63
2023/08/14 07:58:50;;;;;;;12.90;4.50;;;;;;;37.10;34.10;99308.45;135318;1281;25394;-59
2023/08/14 08:01:52;;;;;;;15.00;4.30;;;;;;;37.37;33.54;99309.34;135238;1281;22547;-59
2023/08/14 08:04:55;;;;;;;13.20;4.30;;;;;;;37.75;33.70;99310.26;135393;1280;22534;-60
2023/08/14 08:07:57;;;;;;;13.50;4.00;;;;;;;37.95;33.47;99311.75;135397;1265;22551;-61
2023/08/14 08:11:00;;;;;;;13.80;4.20;;;;;;;37.83;31.76;99317.89;135370;1280;22516;-60
2023/08/14 08:14:05;;;;;;;12.10;4.10;;;;;;;37.86;33.14;99313.73;135324;1280;22534;-59
2023/08/14 08:17:08;;;;;;;12.40;4.10;;;;;;;38.74;31.72;99313.66;135348;1263;22562;-63
2023/08/14 08:20:11;;;;;;;11.40;4.10;;;;;;;39.30;30.70;99316.77;135133;1280;22527;-60
2023/08/14 08:23:13;;;;;;;8.50;3.60;;;;;;;39.03;30.06;99318.70;135271;1281;25236;-62
2023/08/14 08:26:16;;;;;;;11.70;4.00;;;;;;;38.33;29.59;99321.83;135358;1281;22548;-59
2023/08/14 08:29:19;;;;;;;11.20;3.70;;;;;;;38.21;30.67;99318.73;135228;1280;22552;-61
2023/08/14 08:32:21;;;;;;;11.50;4.10;;;;;;;38.05;30.36;99319.14;135341;1280;25260;-58
2023/08/14 08:35:23;;;;;;;12.40;4.20;;;;;;;37.85;30.93;99320.92;135382;1280;23879;-60
2023/08/14 08:38:26;;;;;;;11.80;4.30;;;;;;;37.63;30.69;99325.13;135336;1281;22915;-60
2023/08/14 08:41:28;;;;;;;13.90;4.30;;;;;;;37.77;31.08;99321.35;135343;1280;22566;-63
2023/08/14 08:44:30;;;;;;;12.10;4.10;;;;;;;37.72;30.22;99326.61;135363;1280;22543;-60
2023/08/14 08:47:33;;;;;;;14.10;4.20;;;;;;;37.32;30.37;99331.61;135287;1281;22537;-61
2023/08/14 08:50:35;;;;;;;14.70;4.30;;;;;;;37.35;31.09;99332.48;135400;1281;22539;-60
2023/08/14 08:53:38;;;;;;;13.70;4.20;;;;;;;37.36;31.21;99330.23;135382;1280;22546;-60
2023/08/14 08:56:40;;;;;;;12.20;4.10;;;;;;;37.24;31.34;99332.46;135320;1280;22539;-60
2023/08/14 08:59:43;;;;;;;15.70;4.50;;;;;;;36.91;31.93;99337.91;135355;1280;22541;-60
2023/08/14 09:02:45;;;;;;;13.90;4.50;;;;;;;36.73;32.09;99336.41;135350;1264;24220;-60
2023/08/14 09:05:47;;;;;;;10.80;4.00;;;;;;;36.36;32.38;99332.84;135326;1281;22553;-61
2023/08/14 09:08:50;;;;;;;15.00;4.20;;;;;;;36.12;32.85;99331.90;135380;1280;22523;-62
2023/08/14 09:11:52;;;;;;;15.00;4.90;;;;;;;36.06;32.71;99331.83;135149;1280;22576;-58
2023/08/14 09:14:55;;;;;;;12.80;3.90;;;;;;;36.38;32.17;99324.85;135270;1280;22544;-61
2023/08/14 09:17:57;;;;;;;12.00;4.40;;;;;;;36.26;32.68;99324.44;135236;1281;22525;-60
2023/08/14 09:20:59;;;;;;;10.80;4.20;;;;;;;36.41;33.24;99321.61;135115;1280;22550;-59
2023/08/14 09:24:02;;;;;;;20.50;4.50;;;;;;;36.62;33.32;99317.69;135241;1280;22543;-63
2023/08/14 09:27:04;;;;;;;16.60;4.50;;;;;;;36.81;34.04;99319.86;135362;1280;22471;-61
2023/08/14 09:30:07;;;;;;;11.40;4.40;;;;;;;37.13;33.44;99319.46;135325;1280;24215;-65
2023/08/14 09:33:09;;;;;;;13.70;4.20;;;;;;;37.22;32.10;99314.55;135313;1280;22532;-61
2023/08/14 09:36:12;;;;;;;12.50;4.20;;;;;;;37.91;31.74;99312.24;135136;1280;22527;-61
2023/08/14 09:39:15;;;;;;;15.60;4.20;;;;;;;38.61;31.85;99308.88;135385;1281;22541;-63
2023/08/14 09:42:17;;;;;;;13.00;4.00;;;;;;;39.24;31.08;99308.30;135376;1280;22532;-63
2023/08/14 09:45:23;;;;;;;9.10;3.40;;;;;;;39.67;29.75;99308.16;135341;1265;25527;-62
2023/08/14 09:48:25;;;;;;;9.70;3.50;;;;;;;39.69;28.48;99302.73;135316;1280;22530;-63
2023/08/14 09:51:28;;;;;;;10.80;3.30;;;;;;;39.49;27.13;99299.80;135284;1280;22690;-60
2023/08/14 09:54:30;;;;;;;10.40;3.20;;;;;;;39.57;27.35;99303.26;135071;1281;25303;-59
2023/08/14 09:57:33;;;;;;;10.30;3.50;;;;;;;39.23;26.44;99303.15;135369;1280;22545;-65
2023/08/14 10:00:36;;;;;;;11.00;3.40;;;;;;;39.26;25.87;99299.14;135153;1281;315158;-62
2023/08/14 10:03:38;;;;;;;7.10;2.80;;;;;;;39.74;26.43;99297.63;135372;1280;22523;-65
2023/08/14 10:06:41;;;;;;;10.00;3.20;;;;;;;40.07;25.57;99299.21;135380;1281;22536;-61
2023/08/14 10:09:43;;;;;;;8.20;3.10;;;;;;;39.73;24.04;99299.66;135365;1260;22531;-63
2023/08/14 10:12:46;;;;;;;8.00;2.90;;;;;;;39.71;25.67;99297.18;135288;1281;22554;-66
2023/08/14 10:15:48;;;;;;;7.90;2.70;;;;;;;39.53;24.51;99302.27;135339;1281;22532;-63
2023/08/14 10:18:50;;;;;;;8.70;2.70;;;;;;;39.61;24.45;99303.16;135306;1281;22570;-59
2023/08/14 10:21:53;;;;;;;6.70;2.80;;;;;;;40.29;24.36;99292.94;135340;1281;22547;-61
2023/08/14 10:24:55;;;;;;;9.30;3.10;;;;;;;40.75;23.99;99289.89;135291;1280;22544;-63
2023/08/14 10:27:57;;;;;;;5.70;2.60;;;;;;;40.85;24.29;99291.40;135353;1281;22548;-61
2023/08/14 10:31:00;;;;;;;8.40;3.10;;;;;;;40.77;24.03;99290.23;135385;1281;22568;-60
2023/08/14 10:34:02;;;;;;;8.30;3.30;;;;;;;40.72;24.65;99292.23;135373;1280;22540;-59
2023/08/14 10:37:05;;;;;;;7.70;2.90;;;;;;;40.98;23.89;99290.23;135375;1280;23003;-65
2023/08/14 10:40:07;;;;;;;8.50;3.20;;;;;;;41.58;23.69;99288.97;135338;1280;22533;-64
2023/08/14 10:43:10;;;;;;;10.30;3.30;;;;;;;41.84;23.17;99287.83;135365;1280;22530;-64
2023/08/14 10:46:13;;;;;;;12.00;3.20;;;;;;;41.83;23.35;99283.05;135307;1280;22529;-63
2023/08/14 10:49:15;;;;;;;9.10;3.20;;;;;;;41.90;23.38;99276.05;135327;1280;22646;-63
2023/08/14 10:52:19;;;;;;;7.50;2.90;;;;;;;42.13;23.00;99270.76;135352;1281;22535;-63
2023/08/14 10:55:21;;;;;;;11.10;3.20;;;;;;;42.53;22.97;99274.05;135290;1281;22525;-60
2023/08/14 10:58:24;;;;;;;10.30;3.10;;;;;;;42.80;23.49;99271.17;135132;1280;22758;-57
2023/08/14 11:01:26;;;;;;;9.40;3.00;;;;;;;43.07;23.41;99269.61;135294;1281;24212;-60
2023/08/14 11:04:29;;;;;;;9.10;3.30;;;;;;;43.49;23.00;99267.64;135336;1281;25262;-59
2023/08/14 11:07:31;;;;;;;9.00;3.10;;;;;;;43.55;22.90;99267.83;135284;1270;22539;-60
2023/08/14 11:10:34;;;;;;;11.50;3.60;;;;;;;43.70;23.00;99267.20;135330;1280;24095;-60
2023/08/14 11:13:36;;;;;;;12.10;3.60;;;;;;;43.89;23.43;99265.17;135301;1281;22539;-61
2023/08/14 11:16:40;;;;;;;9.80;3.30;;;;;;;43.85;22.78;99265.89;135328;1281;22554;-60
2023/08/14 11:19:42;;;;;;;13.90;3.30;;;;;;;43.95;22.76;99260.02;135303;1280;22550;-60
2023/08/14 11:22:45;;;;;;;12.30;3.60;;;;;;;44.20;23.07;99254.14;135290;1280;22588;-59
2023/08/14 11:25:47;;;;;;;13.10;3.00;;;;;;;44.39;22.66;99255.30;135330;1281;25344;-60
2023/08/14 11:28:49;;;;;;;10.50;3.00;;;;;;;44.35;22.13;99253.02;135216;1281;22568;-61
2023/08/14 11:31:52;;;;;;;9.80;3.30;;;;;;;44.28;22.38;99255.92;135152;1281;22646;-58
2023/08/14 11:34:54;;;;;;;12.70;3.00;;;;;;;44.01;22.56;99259.30;135288;1264;24239;-58
2023/08/14 11:37:56;;;;;;;11.10;3.40;;;;;;;43.66;22.41;99255.50;135316;1280;22578;-60
2023/08/14 11:40:59;;;;;;;9.70;3.10;;;;;;;43.65;22.48;99253.48;135327;1280;22532;-60
2023/08/14 11:44:01;;;;;;;11.10;3.40;;;;;;;43.77;21.89;99251.66;135269;1264;22526;-57
2023/08/14 11:47:06;;;;;;;14.70;3.70;;;;;;;43.63;22.17;99250.25;135324;1280;22608;-59
2023/08/14 11:50:09;;;;;;;10.10;3.00;;;;;;;43.43;22.21;99252.12;135255;1280;22554;-60
2023/08/14 11:53:11;;;;;;;12.50;3.30;;;;;;;43.31;22.57;99249.39;135223;1257;25524;-60
2023/08/14 11:56:13;;;;;;;8.70;3.00;;;;;;;43.44;22.69;99248.03;135314;1280;22537;-61
2023/08/14 11:59:16;;;;;;;8.80;3.20;;;;;;;43.75;22.39;99239.34;135285;1259;22544;-57
2023/08/14 12:02:18;;;;;;;12.10;2.80;;;;;;;44.25;22.15;99235.31;135231;1280;22532;-59
2023/08/14 12:05:21;;;;;;;7.40;2.90;;;;;;;44.37;21.74;99235.68;135324;1281;22547;-60
2023/08/14 12:08:23;;;;;;;13.00;3.20;;;;;;;44.10;21.60;99233.27;135325;1265;26605;-59
2023/08/14 12:11:25;;;;;;;14.00;2.90;;;;;;;43.64;21.02;99232.34;135278;1280;22502;-60
2023/08/14 12:14:28;;;;;;;13.30;3.60;;;;;;;42.85;22.05;99226.40;135327;1267;22535;-60
2023/08/14 12:17:30;;;;;;;8.90;3.20;;;;;;;43.09;22.50;99228.76;135334;1280;22548;-59
2023/08/14 12:20:34;;;;;;;12.30;3.50;;;;;;;43.34;22.09;99229.73;135295;1281;22526;-57
2023/08/14 12:23:36;;;;;;;13.10;3.80;;;;;;;43.73;22.19;99230.56;135293;1259;22538;-59
2023/08/14 12:26:40;;;;;;;11.90;3.50;;;;;;;44.17;22.21;99228.99;135285;1280;22552;-60
2023/08/14 12:29:42;;;;;;;12.30;3.50;;;;;;;44.41;21.61;99220.40;135339;1280;22534;-59
2023/08/14 12:32:45;;;;;;;8.70;3.00;;;;;;;44.47;21.84;99217.44;135330;1278;22542;-60
2023/08/14 12:35:47;;;;;;;13.20;3.50;;;;;;;44.39;22.08;99214.92;135316;1280;22547;-57
2023/08/14 12:38:49;;;;;;;10.00;3.20;;;;;;;44.47;22.10;99208.04;135313;1280;22603;-60
2023/08/14 12:41:52;;;;;;;10.80;3.20;;;;;;;44.52;22.21;99210.05;135286;1280;22569;-57
2023/08/14 12:44:54;;;;;;;11.70;3.20;;;;;;;44.42;22.17;99212.64;135262;1266;22528;-60
2023/08/14 12:47:57;;;;;;;14.00;3.60;;;;;;;44.20;22.22;99212.19;135277;1280;24235;-60
2023/08/14 12:50:59;;;;;;;12.20;3.30;;;;;;;44.10;22.41;99207.95;135299;1280;22586;-57
2023/08/14 12:54:01;;;;;;;14.30;3.40;;;;;;;44.30;22.28;99202.66;135273;1280;22523;-58
2023/08/14 12:57:04;;;;;;;11.80;3.30;;;;;;;44.53;22.39;99200.13;135247;1280;22559;-60
2023/08/14 13:00:06;;;;;;;10.10;3.50;;;;;;;44.65;22.27;99197.70;135285;1263;22652;-61
2023/08/14 13:03:09;;;;;;;10.90;3.30;;;;;;;44.67;22.25;99194.30;135188;1280;22569;-60
2023/08/14 13:06:11;;;;;;;10.40;3.30;;;;;;;44.64;22.37;99194.63;135272;1280;22526;-59
2023/08/14 13:09:13;;;;;;;12.50;3.30;;;;;;;44.59;22.79;99190.52;135253;1280;22659;-61
2023/08/14 13:12:16;;;;;;;9.80;3.30;;;;;;;44.82;22.62;99189.35;135316;1280;22554;-57
2023/08/14 13:15:18;;;;;;;9.70;3.50;;;;;;;44.86;22.34;99187.67;135311;1280;22529;-60
2023/08/14 13:18:22;;;;;;;12.70;3.40;;;;;;;44.64;22.39;99187.17;135272;1280;23887;-59
2023/08/14 13:21:24;;;;;;;11.90;3.70;;;;;;;44.41;22.32;99187.77;135285;1280;22550;-57
2023/08/14 13:24:27;;;;;;;12.90;3.70;;;;;;;44.24;22.39;99189.13;135303;1265;22534;-57
2023/08/14 13:27:29;;;;;;;12.70;3.40;;;;;;;44.34;22.54;99186.09;135278;1280;22536;-60
2023/08/14 13:30:31;;;;;;;10.70;3.20;;;;;;;44.63;22.31;99188.74;135279;1264;22539;-57
2023/08/14 13:33:34;;;;;;;11.00;3.40;;;;;;;44.86;22.01;99188.06;135280;1280;22537;-60
2023/08/14 13:36:37;;;;;;;15.40;3.80;;;;;;;45.04;21.71;99187.81;135293;1262;22666;-60
2023/08/14 13:39:39;;;;;;;11.80;3.60;;;;;;;45.04;21.88;99184.18;135302;1280;22571;-60
2023/08/14 13:42:41;;;;;;;13.30;3.70;;;;;;;45.07;21.32;99182.38;135265;1280;22532;-60
2023/08/14 13:45:44;;;;;;;11.80;3.10;;;;;;;45.21;21.47;99182.73;135249;1280;22637;-58
2023/08/14 13:48:46;;;;;;;14.30;3.80;;;;;;;45.25;21.38;99187.27;135246;1265;22577;-58
2023/08/14 13:51:48;;;;;;;13.00;3.20;;;;;;;45.20;21.67;99186.98;135256;1280;22544;-60
2023/08/14 13:54:51;;;;;;;11.20;3.30;;;;;;;44.83;21.67;99184.90;135298;1280;22529;-60
2023/08/14 13:57:53;;;;;;;13.90;3.50;;;;;;;44.37;21.67;99183.15;135282;1280;22523;-60